Lewiston Nez Perce County Airport
KLWS : now visible

Airfield :











YOU CAN JOIN US ON...

 
LOGIN :

Register | Disclaimer

   EN    FR    IT 

 









Legend :    VFR   Marginal VFR   IFR   Intensive IFR   Very Intensive IFR
Visi :
Ceiling :
>= 8 km
>= 3000ft
5 to 8 km
1000 to 3000 ft
1500m to 5 km
500 to 1000 ft
800 to 1500m
200 to 500 ft
< 800m
< 200 ft
Symbols :   Thunderstorms  Fog  Heavy snow  Heavy precipitations  Wind > 20 kt







- Airport Elevation : 1442 ft
- IATA code : LWS


KLWS - Lewiston Nez Perce County

CURRENT METAR :
  • 202356Z 36003KT 10SM OVC090 20/03 A2965 RMK AO2 SLP039 T02000033 10217 20172 56005

EXPIRED METARs :
  • 202256Z VRB04KT 10SM SCT070 OVC080 19/03 A2965 RMK AO2 SLP039 T01940033
  • 202156Z 03004KT 10SM OVC070 19/03 A2966 RMK AO2 SLP041 T01940033

TAF KLWS
Valid from the 21 at 00:00 until the 22 at 00:00 UTC


202334Z 2100/2124 03008KT P6SM OVC070
FM210900 15005KT P6SM -SHRA SCT040 OVC070
FM211200 VRB03KT P6SM -SHRA BKN025 OVC050
FM211800 29005KT P6SM BKN050 OVC070
FM212200 31006KT P6SM VCSH BKN060
KZSE FIR / North America



MET'MAP, your aeronautical weather chart ! - Copyright ORBIFLY December 2007 - Disclaimer

ORBIFLY MET'MAP TEAM :

Programming & Development : Alexandra Zaïnal
Concept & Development : Baudouin d'Aumeries
Co-Development & Prog : Marc-Olivier Méhu
Technical & hardware support : Manuel Goepfert

Contact : metmap@orbifly.com




SOURCES & CREDITS :

   NOAA       Earth
Advisory